Flora, IL

03:04 AM CST am 24. Januar 2017 (GMT -0600)
Flora Municipal | | Change Station
aktive Warnung: Flood Warning

Höhe 469 ft 38.66 °N, 88.45 °W | Updated 9 minutes ago

Bedeckt
Bedeckt
42 °F
gefühlte 38 °F
N
6
Wind Wechselnd Wind aus West-Nordwest

Heute
Max. -- | schwach -- °F
--% Regenrisiko
Gestern
Max. -- | schwach -- °F
Precip. -- inch
Druck 29.88 inch
Sichtweite 10.0 Meilen
Wolken Bedeckt 1900 ft
Windchill 38 °F
Taupunkt 35 °F
Feuchtigkeit 78%
Regen 0.00 inch
Schneehöhe Nicht verfügbar..
7:05 AM 5:06 PM
Letztes Viertel, 13% visible
METAR KFOA 240855Z AUTO 30005KT 10SM OVC019 05/02 A2988 RMK AO2 T00530018
Druck 29.88 inch
Sichtweite 10.0 Meilen
Wolken Bedeckt 1900 ft
Windchill 38 °F
Taupunkt 35 °F
Feuchtigkeit 78%
Regen 0.00 inch
Schneehöhe Nicht verfügbar..
7:05 AM 5:06 PM
Letztes Viertel, 13% visible
METAR KFOA 240855Z AUTO 30005KT 10SM OVC019 05/02 A2988 RMK AO2 T00530018

Get Your Daily Forecast Email!

Thanks for signing up!

Be on the lookout for a verification email in your inbox.

You'll start receiving the daily forecast at 8 AM.

×

10-Day Weather Forecast

Almanac

Astronomie

Jan. 24, 2017 Aufgang Untergang
Genaue Zeit
Bürgerliche Dämmerung
Nautische Dämmerung
Astronomische Dämmerung
Mond
Länge des sichtbaren Lichts
Tageslänge
Tomorrow will be .
, % of the Moon is Illuminated

Heutige Rekorde

State Highs State Lows

Community

WunderPhotos

Upload Photos

1,962,540 Fotos hochgeladen!

WunderBlog® & News

Nearby

Luftqualität

  Luftqualität LQ Index Schadstoff
Not available.

Schneehöhe

Station Depth Höhe

Erdbebenaktivität

Stadt Distance Mag. Time & Date
Minimum magnitude displayed is 2.5.

küstennahe Wassertemperaturen

Ort Temperatur

Stations

Wetterstationen in der Umgebung

Stationsstandort Temp. Windchill Taupunkt Feuchtigkeit Wind Precip. Höhe Aktualisiert Art
                   

Watches & Warnings

Flood Warning
Issued: 20:25 CST Jan. 23, 2017 – National Weather Service

The Flood Warning continues for
the Little Wabash River near Clay City.
* Until late Tuesday night.
* At 745 PM Monday the stage was 19.6 feet.
* Flood stage is 18.0 feet.
* Minor flooding is occurring and minor flooding is forecast.
* Forecast... the river will continue to fall to below flood stage by
tomorrow evening.
* Impact... at 19.7 feet... Mayflower Road... just north of U.S. Route
50... begins to flood.



                  Fld observed forecast 6am
location stg stg day time Tue Wed Thu

Little Wabash River
Clay City 18 19.6 Mon 8 PM 19.3 17.3 13.9



Lat... Lon 3878 8846 3871 8829 3860 8820 3860 8832
      3867 8838 3870 8846